Elizabeth, Australia
Current Conditions -  °F | °C
As of 8:00 PM on Sunday 21 Dec 2014 (Local Time) from YPAD Reporting Station
Clear Clear  
Wind Chill: 82°   Ceiling: Unl
Heat Index: 82°   Visibility: 6mi
Dew Point: 50°   Wind: 10mph
Humidity: 32%   Direction: 130°SE
Pressure: 29.74"   Gusts: NA
Location:  34.71°S, 138.67°E
Report Text: YPAD 211000Z 13009KT CAVOK 28/10 Q1007 NOSIG
Loading
Personal Weather Stations






























Interactive Weather Map New forecast layout! Learn more

10-Day Weather Forecast

Advertisements
Track Severe Weather on mobile